LOG708 EGCC-EKCH
Flight info
| Callsign | LOG708 |
|---|---|
| Flight time | 1h 23m |
| Altitude | FL350 |
| Route | DESI1S DESIG L603 LAMIX UT29 LIBSO UL975 ERDOW ROPAL LESRA TESPI TESP4C |
| Aircraft | B752/M-SDE3FHIM3RW/LB1 |
Departure
| Time | 2026-05-04 10:04 |
|---|---|
| Airport | Manchester Airport (EGCC) |
Arrival
| Time | 2026-05-04 11:27 |
|---|---|
| Airport | Copenhagen Kastrup Airport (EKCH) |
| Time | Latitude | Longitude | Altitude | Speed | Heading |
|---|---|---|---|---|---|
| 2026-05-04 09:46 | 53.36002 | -2.27127 | 266 ft | 0 kts | 91° |
| 2026-05-04 09:51 | 53.36002 | -2.27130 | 266 ft | 1 kts | 91° |
| 2026-05-04 09:51 | 53.36002 | -2.27154 | 266 ft | 3 kts | 91° |
| 2026-05-04 09:52 | 53.36003 | -2.27186 | 266 ft | 3 kts | 103° |
| 2026-05-04 09:52 | 53.36011 | -2.27216 | 266 ft | 3 kts | 134° |
| 2026-05-04 09:52 | 53.36016 | -2.27224 | 266 ft | 0 kts | 178° |
| 2026-05-04 09:55 | 53.35994 | -2.27228 | 266 ft | 7 kts | 183° |
| 2026-05-04 09:55 | 53.35903 | -2.27226 | 266 ft | 14 kts | 177° |
| 2026-05-04 09:55 | 53.35837 | -2.27241 | 266 ft | 8 kts | 224° |
| 2026-05-04 09:55 | 53.35776 | -2.27346 | 266 ft | 12 kts | 227° |
| 2026-05-04 09:56 | 53.35735 | -2.27424 | 266 ft | 7 kts | 229° |
| 2026-05-04 09:56 | 53.35706 | -2.27480 | 266 ft | 1 kts | 230° |
| 2026-05-04 09:56 | 53.35705 | -2.27483 | 266 ft | 0 kts | 230° |
| 2026-05-04 09:57 | 53.35705 | -2.27484 | 266 ft | 0 kts | 230° |
| 2026-05-04 09:57 | 53.35704 | -2.27486 | 266 ft | 0 kts | 230° |
| 2026-05-04 09:57 | 53.35703 | -2.27486 | 266 ft | 0 kts | 230° |
| 2026-05-04 09:58 | 53.35692 | -2.27510 | 266 ft | 3 kts | 230° |
| 2026-05-04 09:58 | 53.35678 | -2.27538 | 266 ft | 8 kts | 231° |
| 2026-05-04 09:58 | 53.35633 | -2.27628 | 266 ft | 12 kts | 227° |
| 2026-05-04 10:00 | 53.35011 | -2.28742 | 266 ft | 28 kts | 227° |
| 2026-05-04 10:00 | 53.34876 | -2.28988 | 266 ft | 28 kts | 227° |
| 2026-05-04 10:02 | 53.34570 | -2.29166 | 266 ft | 0 kts | 51° |
| 2026-05-04 10:04 | 53.37779 | -2.22457 | 1853 ft | 237 kts | 51° |
| 2026-05-04 10:04 | 53.38795 | -2.20312 | 2574 ft | 237 kts | 51° |
| 2026-05-04 10:04 | 53.39834 | -2.18111 | 3309 ft | 246 kts | 51° |
| 2026-05-04 10:04 | 53.40898 | -2.15854 | 4036 ft | 248 kts | 51° |
| 2026-05-04 10:05 | 53.41971 | -2.13573 | 4764 ft | 252 kts | 51° |
| 2026-05-04 10:05 | 53.43058 | -2.11260 | 5490 ft | 255 kts | 51° |
| 2026-05-04 10:05 | 53.44158 | -2.08918 | 6217 ft | 257 kts | 51° |
| 2026-05-04 10:05 | 53.45270 | -2.06552 | 6944 ft | 260 kts | 51° |
| 2026-05-04 10:06 | 53.46392 | -2.04160 | 7669 ft | 263 kts | 51° |
| 2026-05-04 10:06 | 53.47510 | -2.01714 | 8396 ft | 266 kts | 52° |
| 2026-05-04 10:06 | 53.48613 | -1.99210 | 9121 ft | 269 kts | 52° |
| 2026-05-04 10:08 | 53.51273 | -1.78658 | 12461 ft | 374 kts | 102° |
| 2026-05-04 10:08 | 53.50590 | -1.74424 | 13091 ft | 376 kts | 105° |
| 2026-05-04 10:08 | 53.49791 | -1.70270 | 13715 ft | 376 kts | 108° |
| 2026-05-04 10:08 | 53.48918 | -1.66112 | 14343 ft | 380 kts | 109° |
| 2026-05-04 10:09 | 53.48049 | -1.61919 | 14968 ft | 383 kts | 109° |
| 2026-05-04 10:09 | 53.47209 | -1.57664 | 15594 ft | 385 kts | 108° |
| 2026-05-04 10:09 | 53.46393 | -1.53380 | 16220 ft | 388 kts | 108° |
| 2026-05-04 10:09 | 53.45591 | -1.49054 | 16845 ft | 390 kts | 107° |
| 2026-05-04 10:10 | 53.44798 | -1.44694 | 17471 ft | 393 kts | 107° |
| 2026-05-04 10:10 | 53.44006 | -1.40290 | 18097 ft | 396 kts | 107° |
| 2026-05-04 10:10 | 53.43215 | -1.35867 | 18722 ft | 399 kts | 107° |
| 2026-05-04 10:10 | 53.42415 | -1.31397 | 19349 ft | 402 kts | 107° |
| 2026-05-04 10:11 | 53.41606 | -1.26896 | 19973 ft | 406 kts | 107° |
| 2026-05-04 10:11 | 53.40784 | -1.22343 | 20511 ft | 412 kts | 107° |
| 2026-05-04 10:11 | 53.39946 | -1.17730 | 21018 ft | 417 kts | 107° |
| 2026-05-04 10:11 | 53.39098 | -1.13076 | 21519 ft | 420 kts | 107° |
| 2026-05-04 10:12 | 53.38245 | -1.08407 | 22019 ft | 421 kts | 107° |
| 2026-05-04 10:12 | 53.37385 | -1.03717 | 22520 ft | 423 kts | 107° |
| 2026-05-04 10:12 | 53.36519 | -0.99005 | 22960 ft | 426 kts | 107° |
| 2026-05-04 10:12 | 53.35644 | -0.94262 | 23346 ft | 430 kts | 107° |
| 2026-05-04 10:13 | 53.34758 | -0.89466 | 23721 ft | 433 kts | 107° |
| 2026-05-04 10:13 | 53.33864 | -0.84642 | 24047 ft | 437 kts | 107° |
| 2026-05-04 10:13 | 53.32961 | -0.79783 | 24353 ft | 439 kts | 107° |
| 2026-05-04 10:13 | 53.32053 | -0.74905 | 24654 ft | 440 kts | 106° |
| 2026-05-04 10:14 | 53.31475 | -0.69904 | 24934 ft | 440 kts | 94° |
| 2026-05-04 10:14 | 53.31652 | -0.64830 | 25238 ft | 439 kts | 81° |
| 2026-05-04 10:16 | 53.40801 | -0.32384 | 27366 ft | 444 kts | 61° |
| 2026-05-04 10:16 | 53.42188 | -0.27778 | 27665 ft | 444 kts | 62° |
| 2026-05-04 10:16 | 53.43538 | -0.23129 | 27965 ft | 445 kts | 63° |
| 2026-05-04 10:16 | 53.44865 | -0.18444 | 28265 ft | 446 kts | 63° |
| 2026-05-04 10:17 | 53.46174 | -0.13743 | 28565 ft | 446 kts | 64° |
| 2026-05-04 10:17 | 53.47301 | -0.09656 | 28825 ft | 447 kts | 64° |
| 2026-05-04 10:19 | 53.58548 | 0.21350 | 30935 ft | 442 kts | 47° |
| 2026-05-04 10:19 | 53.60593 | 0.25192 | 31234 ft | 441 kts | 46° |
| 2026-05-04 10:19 | 53.62660 | 0.28986 | 31534 ft | 440 kts | 46° |
| 2026-05-04 10:19 | 53.64732 | 0.32752 | 31832 ft | 439 kts | 46° |
| 2026-05-04 10:20 | 53.66801 | 0.36502 | 32131 ft | 437 kts | 46° |
| 2026-05-04 10:20 | 53.68864 | 0.40248 | 32430 ft | 436 kts | 46° |
| 2026-05-04 10:20 | 53.70920 | 0.43997 | 32728 ft | 435 kts | 46° |
| 2026-05-04 10:20 | 53.72958 | 0.47736 | 33026 ft | 434 kts | 46° |
| 2026-05-04 10:21 | 53.74989 | 0.51485 | 33325 ft | 432 kts | 46° |
| 2026-05-04 10:21 | 53.77002 | 0.55223 | 33623 ft | 431 kts | 47° |
| 2026-05-04 10:21 | 53.79007 | 0.58968 | 33897 ft | 430 kts | 47° |
| 2026-05-04 10:21 | 53.81001 | 0.62711 | 34149 ft | 429 kts | 47° |
| 2026-05-04 10:22 | 53.84971 | 0.70215 | 34646 ft | 428 kts | 47° |
| 2026-05-04 10:22 | 53.86947 | 0.73971 | 34876 ft | 428 kts | 47° |
| 2026-05-04 10:22 | 53.88929 | 0.77749 | 35010 ft | 431 kts | 47° |
| 2026-05-04 10:23 | 53.90874 | 0.81632 | 35065 ft | 436 kts | 50° |
| 2026-05-04 10:25 | 54.05657 | 1.16321 | 35057 ft | 466 kts | 53° |
| 2026-05-04 10:25 | 54.09360 | 1.25379 | 35056 ft | 469 kts | 53° |
| 2026-05-04 10:26 | 54.13080 | 1.34506 | 35059 ft | 471 kts | 54° |
| 2026-05-04 10:26 | 54.16813 | 1.43689 | 35060 ft | 473 kts | 54° |
| 2026-05-04 10:27 | 54.20555 | 1.52923 | 35059 ft | 475 kts | 54° |
| 2026-05-04 10:27 | 54.24304 | 1.62200 | 35059 ft | 476 kts | 54° |
| 2026-05-04 10:28 | 54.28061 | 1.71532 | 35059 ft | 477 kts | 54° |
| 2026-05-04 10:28 | 54.31817 | 1.80890 | 35058 ft | 478 kts | 54° |
| 2026-05-04 10:29 | 54.35570 | 1.90277 | 35058 ft | 479 kts | 54° |
| 2026-05-04 10:29 | 54.39322 | 1.99696 | 35059 ft | 479 kts | 54° |
| 2026-05-04 10:30 | 54.43069 | 2.09138 | 35058 ft | 480 kts | 54° |
| 2026-05-04 10:30 | 54.46819 | 2.18623 | 35057 ft | 481 kts | 54° |
| 2026-05-04 10:31 | 54.50561 | 2.28123 | 35057 ft | 481 kts | 54° |
| 2026-05-04 10:32 | 54.63609 | 2.61534 | 35055 ft | 481 kts | 54° |
| 2026-05-04 10:33 | 54.67320 | 2.71119 | 35055 ft | 481 kts | 54° |
| 2026-05-04 10:33 | 54.71028 | 2.80736 | 35055 ft | 482 kts | 54° |
| 2026-05-04 10:34 | 54.74729 | 2.90368 | 35055 ft | 482 kts | 54° |
| 2026-05-04 10:34 | 54.78424 | 3.00024 | 35054 ft | 482 kts | 54° |
| 2026-05-04 10:35 | 54.82116 | 3.09708 | 35053 ft | 483 kts | 54° |
| 2026-05-04 10:35 | 54.85800 | 3.19411 | 35053 ft | 483 kts | 55° |
| 2026-05-04 10:36 | 54.89481 | 3.29145 | 35055 ft | 483 kts | 55° |
| 2026-05-04 10:36 | 54.93156 | 3.38903 | 35055 ft | 483 kts | 55° |
| 2026-05-04 10:37 | 54.96823 | 3.48679 | 35055 ft | 484 kts | 55° |
| 2026-05-04 10:37 | 55.00482 | 3.58476 | 35055 ft | 484 kts | 55° |
| 2026-05-04 10:39 | 55.13116 | 3.93020 | 35055 ft | 484 kts | 58° |
| 2026-05-04 10:40 | 55.16124 | 4.03529 | 35056 ft | 485 kts | 63° |
| 2026-05-04 10:40 | 55.18834 | 4.14347 | 35056 ft | 487 kts | 65° |
| 2026-05-04 10:41 | 55.21416 | 4.25300 | 35056 ft | 488 kts | 66° |
| 2026-05-04 10:41 | 55.23956 | 4.36319 | 35055 ft | 489 kts | 66° |
| 2026-05-04 10:42 | 55.26487 | 4.47359 | 35055 ft | 489 kts | 66° |
| 2026-05-04 10:42 | 55.29022 | 4.58412 | 35055 ft | 490 kts | 66° |
| 2026-05-04 10:43 | 55.31565 | 4.69480 | 35055 ft | 490 kts | 66° |
| 2026-05-04 10:45 | 55.40522 | 5.14821 | 35053 ft | 496 kts | 76° |
| 2026-05-04 10:45 | 55.41950 | 5.26688 | 35051 ft | 498 kts | 77° |
| 2026-05-04 10:46 | 55.43286 | 5.38631 | 35047 ft | 499 kts | 78° |
| 2026-05-04 10:46 | 55.44589 | 5.50616 | 35041 ft | 500 kts | 78° |
| 2026-05-04 10:47 | 55.45882 | 5.62622 | 35039 ft | 500 kts | 78° |
| 2026-05-04 10:47 | 55.47173 | 5.74652 | 35036 ft | 501 kts | 78° |
| 2026-05-04 10:49 | 55.52313 | 6.22980 | 35026 ft | 504 kts | 79° |
| 2026-05-04 10:50 | 55.53585 | 6.35129 | 35024 ft | 504 kts | 79° |
| 2026-05-04 10:52 | 55.58584 | 6.83918 | 35012 ft | 507 kts | 80° |
| 2026-05-04 10:52 | 55.59810 | 6.96183 | 35003 ft | 508 kts | 80° |
| 2026-05-04 10:54 | 55.64616 | 7.45558 | 34989 ft | 512 kts | 81° |
| 2026-05-04 10:56 | 55.69248 | 7.95336 | 34990 ft | 514 kts | 81° |
| 2026-05-04 10:57 | 55.70377 | 8.07817 | 34990 ft | 514 kts | 81° |
| 2026-05-04 10:57 | 55.71495 | 8.20323 | 34990 ft | 515 kts | 81° |
| 2026-05-04 10:58 | 55.72600 | 8.32837 | 34992 ft | 515 kts | 82° |
| 2026-05-04 10:58 | 55.73693 | 8.45360 | 34994 ft | 515 kts | 82° |
| 2026-05-04 10:59 | 55.74774 | 8.57902 | 34993 ft | 515 kts | 82° |
| 2026-05-04 10:59 | 55.75843 | 8.70464 | 34983 ft | 516 kts | 82° |
| 2026-05-04 11:00 | 55.76900 | 8.83046 | 34977 ft | 516 kts | 82° |
| 2026-05-04 11:02 | 55.81001 | 9.33471 | 34967 ft | 517 kts | 83° |
| 2026-05-04 11:05 | 55.88049 | 10.27254 | 29794 ft | 480 kts | 84° |
| 2026-05-04 11:06 | 55.88461 | 10.33111 | 29244 ft | 476 kts | 84° |
| 2026-05-04 11:06 | 55.88867 | 10.38924 | 28695 ft | 472 kts | 84° |
| 2026-05-04 11:06 | 55.89267 | 10.44692 | 28145 ft | 468 kts | 84° |
| 2026-05-04 11:06 | 55.89507 | 10.50428 | 27591 ft | 463 kts | 89° |
| 2026-05-04 11:08 | 55.85670 | 10.88407 | 23751 ft | 433 kts | 108° |
| 2026-05-04 11:10 | 55.80462 | 11.23640 | 19903 ft | 410 kts | 108° |
| 2026-05-04 11:12 | 55.76572 | 11.57471 | 16058 ft | 392 kts | 98° |
| 2026-05-04 11:12 | 55.76292 | 11.62253 | 15508 ft | 388 kts | 98° |
| 2026-05-04 11:12 | 55.76036 | 11.66991 | 14959 ft | 385 kts | 97° |
| 2026-05-04 11:12 | 55.75791 | 11.71697 | 14409 ft | 381 kts | 97° |
| 2026-05-04 11:13 | 55.75551 | 11.76356 | 13859 ft | 378 kts | 97° |
| 2026-05-04 11:13 | 55.75308 | 11.80965 | 13311 ft | 374 kts | 97° |
| 2026-05-04 11:13 | 55.75056 | 11.85538 | 12761 ft | 371 kts | 97° |
| 2026-05-04 11:13 | 55.74799 | 11.90064 | 12211 ft | 367 kts | 97° |
| 2026-05-04 11:14 | 55.74537 | 11.94539 | 11663 ft | 364 kts | 97° |
| 2026-05-04 11:16 | 55.72175 | 12.33166 | 6693 ft | 334 kts | 96° |
| 2026-05-04 11:16 | 55.71927 | 12.37152 | 6142 ft | 318 kts | 96° |
| 2026-05-04 11:16 | 55.71689 | 12.40944 | 5589 ft | 302 kts | 96° |
| 2026-05-04 11:17 | 55.71468 | 12.44569 | 5037 ft | 292 kts | 95° |
| 2026-05-04 11:17 | 55.71463 | 12.48128 | 4495 ft | 286 kts | 87° |
| 2026-05-04 11:19 | 55.77245 | 12.68451 | 3994 ft | 265 kts | 46° |
| 2026-05-04 11:19 | 55.78400 | 12.70946 | 3989 ft | 258 kts | 47° |
| 2026-05-04 11:19 | 55.79501 | 12.73369 | 3984 ft | 246 kts | 47° |
| 2026-05-04 11:19 | 55.80546 | 12.75688 | 3984 ft | 236 kts | 47° |
| 2026-05-04 11:20 | 55.81541 | 12.77911 | 4006 ft | 225 kts | 47° |
| 2026-05-04 11:20 | 55.82496 | 12.80057 | 3997 ft | 221 kts | 47° |
| 2026-05-04 11:20 | 55.83452 | 12.82207 | 3993 ft | 223 kts | 47° |
| 2026-05-04 11:20 | 55.84402 | 12.84362 | 3981 ft | 221 kts | 48° |
| 2026-05-04 11:22 | 55.78366 | 12.92134 | 3990 ft | 198 kts | 216° |
| 2026-05-04 11:22 | 55.77328 | 12.90581 | 3902 ft | 194 kts | 226° |
| 2026-05-04 11:23 | 55.76393 | 12.88893 | 3651 ft | 190 kts | 230° |
| 2026-05-04 11:23 | 55.75498 | 12.87228 | 3383 ft | 184 kts | 230° |
| 2026-05-04 11:24 | 55.70105 | 12.78502 | 1962 ft | 162 kts | 226° |
| 2026-05-04 11:25 | 55.69284 | 12.77228 | 1755 ft | 153 kts | 226° |
| 2026-05-04 11:25 | 55.68501 | 12.76011 | 1606 ft | 150 kts | 226° |
| 2026-05-04 11:25 | 55.67712 | 12.74774 | 1392 ft | 153 kts | 225° |
| 2026-05-04 11:26 | 55.66171 | 12.72358 | 997 ft | 143 kts | 225° |
| 2026-05-04 11:27 | 55.61736 | 12.65504 | 26 ft | 34 kts | 222° |
| 2026-05-04 11:28 | 55.61615 | 12.65268 | 26 ft | 20 kts | 251° |
| 2026-05-04 11:28 | 55.61615 | 12.65075 | 26 ft | 16 kts | 289° |
| 2026-05-04 11:28 | 55.61679 | 12.64893 | 26 ft | 20 kts | 314° |
| 2026-05-04 11:28 | 55.61808 | 12.64788 | 26 ft | 22 kts | 2° |
| 2026-05-04 11:29 | 55.61956 | 12.64879 | 26 ft | 24 kts | 32° |
| 2026-05-04 11:29 | 55.62113 | 12.65064 | 26 ft | 28 kts | 33° |
| 2026-05-04 11:29 | 55.62249 | 12.65184 | 26 ft | 16 kts | 0° |
| 2026-05-04 11:29 | 55.62356 | 12.65195 | 26 ft | 15 kts | 1° |
| 2026-05-04 11:31 | 55.62573 | 12.65047 | 26 ft | 0 kts | 268° |